createdAt,value
2022-11-02T00:03:49.324Z,16.80
2022-11-02T00:18:57.509Z,16.70
2022-11-02T00:34:01.851Z,16.70
2022-11-02T00:49:06.587Z,16.40
2022-11-02T01:04:12.879Z,16.30
2022-11-02T01:19:17.465Z,16.30
2022-11-02T01:34:21.866Z,16.20
2022-11-02T01:49:27.785Z,16.20
2022-11-02T02:04:34.192Z,16.00
2022-11-02T02:19:49.087Z,15.60
2022-11-02T02:34:59.004Z,15.70
2022-11-02T02:50:10.463Z,15.60
2022-11-02T03:05:25.877Z,15.50
2022-11-02T03:20:41.197Z,15.40
2022-11-02T03:35:56.379Z,15.60
2022-11-02T03:51:06.122Z,15.60
2022-11-02T04:06:12.739Z,15.30
2022-11-02T04:21:17.918Z,15.50
2022-11-02T04:36:22.642Z,15.20
2022-11-02T04:51:32.063Z,15.70
2022-11-02T05:06:36.455Z,15.40
2022-11-02T05:21:42.010Z,15.50
2022-11-02T05:36:48.962Z,15.50
2022-11-02T05:51:53.467Z,15.40
2022-11-02T06:06:57.668Z,15.40
2022-11-02T06:22:02.014Z,15.30
2022-11-02T06:37:06.433Z,15.50
2022-11-02T06:52:10.599Z,15.40
2022-11-02T07:07:15.561Z,15.10
2022-11-02T07:22:19.901Z,14.90
2022-11-02T07:37:24.120Z,15.10
2022-11-02T07:52:28.506Z,15.20
2022-11-02T08:07:32.911Z,15.40
2022-11-02T08:22:39.750Z,15.70
2022-11-02T08:37:44.262Z,15.90
2022-11-02T08:52:48.679Z,16.00
2022-11-02T09:07:58.137Z,16.60
2022-11-02T09:23:02.676Z,16.60
2022-11-02T09:38:07.447Z,16.90
2022-11-02T09:53:18.275Z,17.50
2022-11-02T10:08:32.318Z,17.60
2022-11-02T10:23:40.834Z,17.60
2022-11-02T10:38:58.856Z,17.80
2022-11-02T10:54:03.249Z,17.90
2022-11-02T11:09:16.665Z,18.40
2022-11-02T11:24:29.326Z,18.00
2022-11-02T11:39:34.915Z,18.70
2022-11-02T11:54:39.627Z,18.80
2022-11-02T12:09:50.725Z,18.70
2022-11-02T12:25:20.894Z,18.80
2022-11-02T12:40:31.212Z,18.60
2022-11-02T12:55:40.978Z,18.80
2022-11-02T13:10:53.502Z,18.90
2022-11-02T13:26:00.674Z,19.00
2022-11-02T13:41:22.943Z,19.00
2022-11-02T13:56:30.029Z,18.90
2022-11-02T14:11:47.091Z,19.10
2022-11-02T14:26:59.164Z,19.40
2022-11-02T14:42:18.151Z,19.30
2022-11-02T14:57:25.970Z,19.30
2022-11-02T15:12:37.291Z,19.00
2022-11-02T15:27:43.745Z,18.70
2022-11-02T15:42:58.823Z,18.90
2022-11-02T15:58:12.170Z,18.50
2022-11-02T16:13:19.498Z,18.20
2022-11-02T16:28:25.524Z,18.50
2022-11-02T16:43:30.987Z,18.40
2022-11-02T16:58:36.539Z,18.50
2022-11-02T17:13:47.765Z,18.30
2022-11-02T17:28:53.682Z,18.40
2022-11-02T17:43:58.801Z,18.10
2022-11-02T17:59:03.203Z,18.00
2022-11-02T18:14:07.653Z,17.90
2022-11-02T18:29:12.027Z,17.90
2022-11-02T18:44:16.430Z,17.90
2022-11-02T18:59:20.743Z,17.80
2022-11-02T19:14:25.806Z,17.70
2022-11-02T19:29:30.180Z,17.70
2022-11-02T19:44:41.050Z,17.70
2022-11-02T19:59:47.014Z,17.70
2022-11-02T20:14:51.803Z,17.70
2022-11-02T20:29:56.169Z,17.60
2022-11-02T20:45:01.699Z,17.50
2022-11-02T21:00:06.968Z,17.50
2022-11-02T21:15:11.690Z,17.50
2022-11-02T21:30:16.157Z,17.40
2022-11-02T21:45:25.176Z,17.50
2022-11-02T22:00:50.955Z,17.20
2022-11-02T22:15:55.359Z,17.20
2022-11-02T22:30:59.584Z,16.90
2022-11-02T22:46:05.952Z,17.10
2022-11-02T23:01:12.390Z,17.00
2022-11-02T23:16:24.489Z,17.20
2022-11-02T23:31:46.299Z,17.50
2022-11-02T23:46:52.858Z,17.20
